VCBI/CMB METAR and TAF weather

Enter ICAO airport designator
Station Type Date Time Source
VCBI METAR 2020/09/23 03:10 UTC NOAA

VCBI 230310Z 23006KT 200V270 9999 SCT017 28/24 Q1011 NOSIG


Station Type Date Time Source
VCBI Decoded METAR 2020/09/23 03:10 UTC NOAA

Katunayake, Sri Lanka (VCBI) 07-10N 079-53E 8M
Sep 22, 2020 - 11:10 PM EDT / 2020.09.23 0310 UTC
Wind: from the SW (230 degrees) at 7 MPH (6 KT) (direction variable):0
Visibility: greater than 7 mile(s):0
Sky conditions: partly cloudy
Temperature: 82 F (28 C)
Dew Point: 75 F (24 C)
Relative Humidity: 78%
Pressure (altimeter): 29.85 in. Hg (1011 hPa)
ob: VCBI 230310Z 23006KT 200V270 9999 SCT017 28/24 Q1011 NOSIG
cycle: 3

Station Type Date Time Source
VCBI TAF 2020/09/22 18:06 UTC NOAA

TAF TAF VCBI 221700Z 2218/2324 16008KT 9999 SCT017 TX30/2308Z TN24/2300Z PROB30
TEMPO 2221/2303 24012G25KT 6000 -SHRA FEW012 BKN016
BECMG 2303/2305 24010KT

Example: see airport list